createdAt,value
2017-11-30T00:00:57.223Z,77.20
2017-11-30T00:03:24.688Z,77.20
2017-11-30T00:05:52.160Z,77.10
2017-11-30T00:08:20.402Z,77.20
2017-11-30T00:10:47.886Z,77.20
2017-11-30T00:13:16.119Z,77.20
2017-11-30T00:15:43.594Z,77.20
2017-11-30T00:18:11.050Z,77.40
2017-11-30T00:20:38.514Z,77.50
2017-11-30T00:23:06.069Z,77.60
2017-11-30T00:25:33.626Z,77.70
2017-11-30T00:28:01.192Z,77.70
2017-11-30T00:30:29.635Z,77.80
2017-11-30T00:32:57.115Z,77.80
2017-11-30T00:35:24.592Z,77.80
2017-11-30T00:37:52.144Z,77.90
2017-11-30T00:40:19.704Z,78.90
2017-11-30T00:42:59.144Z,78.20
2017-11-30T00:45:26.692Z,78.20
2017-11-30T00:47:54.156Z,78.30
2017-11-30T00:50:21.707Z,78.30
2017-11-30T00:52:49.184Z,78.30
2017-11-30T00:55:17.411Z,79.10
2017-11-30T00:57:44.892Z,78.20
2017-11-30T01:00:12.370Z,78.40
2017-11-30T01:02:40.600Z,78.40
2017-11-30T01:05:08.067Z,78.40
2017-11-30T01:07:35.534Z,78.40
2017-11-30T01:10:03.108Z,78.50
2017-11-30T01:12:30.571Z,78.30
2017-11-30T01:14:58.808Z,78.90
2017-11-30T01:17:26.270Z,78.30
2017-11-30T01:19:53.741Z,78.10
2017-11-30T01:22:21.271Z,78.50
2017-11-30T01:24:48.743Z,78.70
2017-11-30T01:27:16.211Z,78.90
2017-11-30T01:29:43.684Z,79.00
2017-11-30T01:32:11.236Z,78.90
2017-11-30T01:34:38.715Z,78.90
2017-11-30T01:37:06.954Z,79.10
2017-11-30T01:39:34.529Z,79.10
2017-11-30T01:42:01.993Z,79.10
2017-11-30T01:44:30.238Z,80.10
2017-11-30T01:46:57.713Z,79.10
2017-11-30T01:49:25.271Z,78.90
2017-11-30T01:51:52.829Z,79.10
2017-11-30T01:54:20.383Z,79.20
2017-11-30T01:56:47.939Z,78.80
2017-11-30T01:59:15.504Z,79.00
2017-11-30T02:01:43.063Z,79.20
2017-11-30T02:04:10.530Z,79.10
2017-11-30T02:06:38.092Z,79.30
2017-11-30T02:09:05.638Z,79.20
2017-11-30T02:11:33.104Z,78.90
2017-11-30T02:14:00.650Z,78.90
2017-11-30T02:16:28.129Z,78.80
2017-11-30T02:18:56.356Z,80.10
2017-11-30T02:21:23.819Z,79.60
2017-11-30T02:23:51.278Z,79.20
2017-11-30T02:26:18.747Z,79.50
2017-11-30T02:28:46.224Z,79.30
2017-11-30T02:31:13.782Z,79.60
2017-11-30T02:33:41.256Z,79.60
2017-11-30T02:36:09.519Z,79.30
2017-11-30T02:38:36.984Z,79.30
2017-11-30T02:41:05.219Z,79.60
2017-11-30T02:43:32.704Z,79.60
2017-11-30T02:46:00.174Z,79.80
2017-11-30T02:48:28.412Z,79.80
2017-11-30T02:50:55.878Z,79.70
2017-11-30T02:53:23.349Z,80.10
2017-11-30T02:55:51.578Z,80.00
2017-11-30T02:58:19.041Z,80.00
2017-11-30T03:00:46.502Z,79.80
2017-11-30T03:03:13.970Z,79.80
2017-11-30T03:05:41.447Z,79.70
2017-11-30T03:08:08.899Z,79.70
2017-11-30T03:10:36.455Z,80.00
2017-11-30T03:13:04.011Z,80.00
2017-11-30T03:15:31.570Z,80.00
2017-11-30T03:17:59.031Z,79.80
2017-11-30T03:20:26.494Z,79.70
2017-11-30T03:22:53.959Z,79.70
2017-11-30T03:25:22.205Z,79.70
2017-11-30T03:27:49.658Z,79.70
2017-11-30T03:30:17.127Z,79.80
2017-11-30T03:32:44.578Z,79.80
2017-11-30T03:35:12.052Z,79.70
2017-11-30T03:37:39.523Z,79.50
2017-11-30T03:40:07.753Z,79.70
2017-11-30T03:42:35.229Z,79.70
2017-11-30T03:45:02.790Z,79.70
2017-11-30T03:47:30.303Z,80.00
2017-11-30T03:49:57.820Z,80.20
2017-11-30T03:52:25.287Z,80.70
2017-11-30T03:54:54.190Z,81.10
2017-11-30T03:57:21.718Z,81.00
2017-11-30T03:59:49.281Z,80.80
2017-11-30T04:02:16.748Z,80.70
2017-11-30T04:04:44.987Z,80.50
2017-11-30T04:07:12.458Z,80.60
2017-11-30T04:09:39.919Z,80.70
2017-11-30T04:12:07.470Z,80.50
2017-11-30T04:14:34.939Z,80.30
2017-11-30T04:17:02.408Z,80.60
2017-11-30T04:19:30.671Z,80.80
2017-11-30T04:21:58.138Z,80.60
2017-11-30T04:24:26.379Z,80.60
2017-11-30T04:26:53.849Z,80.50
2017-11-30T04:29:21.409Z,80.40
2017-11-30T04:31:48.870Z,80.60
2017-11-30T04:34:16.333Z,80.80
2017-11-30T04:36:44.590Z,81.20
2017-11-30T04:39:12.056Z,81.00
2017-11-30T04:41:39.521Z,81.00
2017-11-30T04:44:07.134Z,81.00
2017-11-30T04:46:34.712Z,81.70
2017-11-30T04:49:02.321Z,80.80
2017-11-30T04:51:30.670Z,80.60
2017-11-30T04:53:58.135Z,80.70
2017-11-30T04:56:25.589Z,80.50
2017-11-30T04:58:53.052Z,80.50
2017-11-30T05:01:20.510Z,80.80
2017-11-30T05:03:47.971Z,81.50
2017-11-30T05:06:16.236Z,81.10
2017-11-30T05:08:45.206Z,81.50
2017-11-30T05:11:12.779Z,81.50
2017-11-30T05:13:41.039Z,81.60
2017-11-30T05:16:08.514Z,81.80
2017-11-30T05:18:35.967Z,81.90
2017-11-30T05:21:03.440Z,82.00
2017-11-30T05:23:31.708Z,82.10
2017-11-30T05:25:59.195Z,82.00
2017-11-30T05:28:26.659Z,82.00
2017-11-30T05:30:54.170Z,82.10
2017-11-30T05:33:21.734Z,82.20
2017-11-30T05:35:49.295Z,82.50
2017-11-30T05:38:16.844Z,82.70
2017-11-30T05:40:44.314Z,82.80
2017-11-30T05:43:11.778Z,82.40
2017-11-30T05:45:40.016Z,82.50
2017-11-30T05:48:07.496Z,82.50
2017-11-30T05:50:34.952Z,82.50
2017-11-30T05:53:02.432Z,82.50
2017-11-30T05:55:30.660Z,82.30
2017-11-30T05:57:58.129Z,82.20
2017-11-30T06:00:25.592Z,82.00
2017-11-30T06:02:53.075Z,82.00
2017-11-30T06:05:21.298Z,82.10
2017-11-30T06:07:48.778Z,82.00
2017-11-30T06:10:16.344Z,81.90
2017-11-30T06:12:43.812Z,81.80
2017-11-30T06:15:11.280Z,81.80
2017-11-30T06:17:39.502Z,81.80
2017-11-30T06:20:06.976Z,81.70
2017-11-30T06:22:34.442Z,81.70
2017-11-30T06:25:01.917Z,81.80
2017-11-30T06:27:30.178Z,82.00
2017-11-30T06:29:57.762Z,82.00
2017-11-30T06:32:25.202Z,82.00
2017-11-30T06:34:52.678Z,82.90
2017-11-30T06:37:20.142Z,81.90
2017-11-30T06:39:47.710Z,82.00
2017-11-30T06:42:15.171Z,82.00
2017-11-30T06:44:42.666Z,81.80
2017-11-30T06:47:10.267Z,81.60
2017-11-30T06:49:38.498Z,81.70
2017-11-30T06:52:05.962Z,81.70
2017-11-30T06:54:33.426Z,81.90
2017-11-30T06:57:00.907Z,81.70
2017-11-30T06:59:29.156Z,81.90
2017-11-30T07:01:56.617Z,81.90
2017-11-30T07:04:24.079Z,81.90
2017-11-30T07:06:51.564Z,81.70
2017-11-30T07:09:19.092Z,82.00
2017-11-30T07:11:46.550Z,82.30
2017-11-30T07:14:14.110Z,82.90
2017-11-30T07:16:41.582Z,83.60
2017-11-30T07:19:12.377Z,83.80
2017-11-30T07:21:39.877Z,83.80
2017-11-30T07:24:07.406Z,83.60
2017-11-30T07:26:34.862Z,83.20
2017-11-30T07:29:02.335Z,83.20
2017-11-30T07:31:29.880Z,82.90
2017-11-30T07:33:57.342Z,82.80
2017-11-30T07:36:24.895Z,82.60
2017-11-30T07:38:52.511Z,82.40
2017-11-30T07:41:19.988Z,82.30
2017-11-30T07:43:47.458Z,82.10
2017-11-30T07:46:14.935Z,82.20
2017-11-30T07:48:42.396Z,82.60
2017-11-30T07:51:09.864Z,82.90
2017-11-30T07:53:38.089Z,83.30
2017-11-30T07:56:05.555Z,83.20
2017-11-30T07:58:33.043Z,83.30
2017-11-30T08:01:02.804Z,83.00
2017-11-30T08:03:30.270Z,82.90
2017-11-30T08:05:57.745Z,83.00
2017-11-30T08:08:25.314Z,83.40
2017-11-30T08:10:52.866Z,83.50
2017-11-30T08:13:20.383Z,83.20
2017-11-30T08:15:47.858Z,82.60
2017-11-30T08:18:15.346Z,82.30
2017-11-30T08:20:42.908Z,81.90
2017-11-30T08:23:10.486Z,81.60
2017-11-30T08:25:38.726Z,81.00
2017-11-30T08:28:06.195Z,80.90
2017-11-30T08:30:33.660Z,80.90
2017-11-30T08:33:01.211Z,81.50
2017-11-30T08:35:28.706Z,81.70
2017-11-30T08:37:56.179Z,81.70
2017-11-30T08:40:23.646Z,81.50
2017-11-30T08:42:51.117Z,81.80
2017-11-30T08:45:18.591Z,81.70
2017-11-30T08:47:46.291Z,81.80
2017-11-30T08:50:13.915Z,81.60
2017-11-30T08:52:41.398Z,81.90
2017-11-30T08:55:09.652Z,81.70
2017-11-30T08:57:37.205Z,81.50
2017-11-30T09:00:04.665Z,81.80
2017-11-30T09:02:32.177Z,81.60
2017-11-30T09:04:59.695Z,81.70
2017-11-30T09:07:27.945Z,79.70
2017-11-30T09:09:55.414Z,79.60
2017-11-30T09:12:22.878Z,77.60
2017-11-30T09:14:50.481Z,77.40
2017-11-30T09:17:17.939Z,77.30
2017-11-30T09:19:45.803Z,79.80
2017-11-30T09:22:13.325Z,77.80
2017-11-30T09:24:41.967Z,77.60
2017-11-30T09:27:10.277Z,76.60
2017-11-30T09:29:37.738Z,76.50
2017-11-30T09:32:05.302Z,76.80
2017-11-30T09:34:33.559Z,77.00
2017-11-30T09:37:01.057Z,76.80
2017-11-30T09:39:28.530Z,75.50
2017-11-30T09:41:56.037Z,72.80
2017-11-30T09:44:23.501Z,72.90
2017-11-30T09:46:52.147Z,68.60
2017-11-30T09:49:19.615Z,68.50
2017-11-30T09:51:47.074Z,63.50
2017-11-30T09:54:14.620Z,60.70
2017-11-30T09:56:42.090Z,63.60
2017-11-30T09:59:09.587Z,64.10
2017-11-30T10:01:37.064Z,58.40
2017-11-30T10:04:04.541Z,57.20
2017-11-30T10:06:32.493Z,58.80
2017-11-30T10:08:59.997Z,59.70
2017-11-30T10:11:27.611Z,59.30
2017-11-30T10:13:55.136Z,59.00
2017-11-30T10:16:23.532Z,61.60
2017-11-30T10:18:51.052Z,62.40
2017-11-30T10:21:18.610Z,63.10
2017-11-30T10:23:46.090Z,64.40
2017-11-30T10:26:14.342Z,64.40
2017-11-30T10:28:41.799Z,64.30
2017-11-30T10:31:09.282Z,64.80
2017-11-30T10:33:37.506Z,66.30
2017-11-30T10:36:05.018Z,66.20
2017-11-30T10:38:32.565Z,66.00
2017-11-30T10:41:00.833Z,67.00
2017-11-30T10:43:28.435Z,66.90
2017-11-30T10:45:55.946Z,68.30
2017-11-30T10:48:23.418Z,68.70
2017-11-30T10:50:51.719Z,63.30
2017-11-30T10:53:19.186Z,63.10
2017-11-30T10:55:46.656Z,62.60
2017-11-30T10:58:14.123Z,61.80
2017-11-30T11:00:41.711Z,61.70
2017-11-30T11:03:09.183Z,63.30
2017-11-30T11:05:37.410Z,67.70
2017-11-30T11:08:04.879Z,67.70
2017-11-30T11:10:32.350Z,68.40
2017-11-30T11:12:59.931Z,67.10
2017-11-30T11:15:28.194Z,66.50
2017-11-30T11:17:55.748Z,66.40
2017-11-30T11:20:23.316Z,67.20
2017-11-30T11:22:51.571Z,60.00
2017-11-30T11:25:19.068Z,59.80
2017-11-30T11:27:46.530Z,58.80
2017-11-30T11:30:14.011Z,58.90
2017-11-30T11:32:41.469Z,57.10
2017-11-30T11:35:08.939Z,58.70
2017-11-30T11:37:36.407Z,60.80
2017-11-30T11:40:03.975Z,63.80
2017-11-30T11:42:31.536Z,64.70
2017-11-30T11:44:59.094Z,63.30
2017-11-30T11:47:26.650Z,64.50
2017-11-30T11:49:54.139Z,65.40
2017-11-30T11:52:22.367Z,65.90
2017-11-30T11:54:49.879Z,65.90
2017-11-30T11:57:17.339Z,66.60
2017-11-30T11:59:44.806Z,66.90
2017-11-30T12:02:12.311Z,67.20
2017-11-30T12:04:39.779Z,67.50
2017-11-30T12:07:07.318Z,68.70
2017-11-30T12:09:34.840Z,68.60
2017-11-30T12:12:02.334Z,67.50
2017-11-30T12:14:29.894Z,66.60
2017-11-30T12:16:57.414Z,65.60
2017-11-30T12:19:24.882Z,64.20
2017-11-30T12:21:52.345Z,60.40
2017-11-30T12:24:19.825Z,60.40
2017-11-30T12:26:47.384Z,59.60
2017-11-30T12:29:15.037Z,60.50
2017-11-30T12:31:43.228Z,59.80
2017-11-30T12:34:10.842Z,59.70
2017-11-30T12:36:38.333Z,57.70
2017-11-30T12:39:05.805Z,57.70
2017-11-30T12:41:33.273Z,60.50
2017-11-30T12:44:01.515Z,60.10
2017-11-30T12:46:29.042Z,60.10
2017-11-30T12:48:56.516Z,60.60
2017-11-30T12:51:23.974Z,62.50
2017-11-30T12:53:51.449Z,62.90
2017-11-30T12:56:18.927Z,62.10
2017-11-30T12:58:46.392Z,60.50
2017-11-30T13:01:14.629Z,58.30
2017-11-30T13:03:42.092Z,58.20
2017-11-30T13:06:09.635Z,58.40
2017-11-30T13:08:37.226Z,59.20
2017-11-30T13:11:04.729Z,59.40
2017-11-30T13:13:32.189Z,60.00
2017-11-30T13:15:59.678Z,61.30
2017-11-30T13:18:27.137Z,61.20
2017-11-30T13:20:54.708Z,62.30
2017-11-30T13:23:22.164Z,63.30
2017-11-30T13:25:49.638Z,63.00
2017-11-30T13:28:17.915Z,64.80
2017-11-30T13:30:46.147Z,65.60
2017-11-30T13:33:13.607Z,65.50
2017-11-30T13:35:41.087Z,66.00
2017-11-30T13:38:08.545Z,66.80
2017-11-30T13:40:36.051Z,66.60
2017-11-30T13:43:03.611Z,68.00
2017-11-30T13:45:31.109Z,68.30
2017-11-30T13:47:58.625Z,68.80
2017-11-30T13:50:26.125Z,69.10
2017-11-30T13:52:53.701Z,69.30
2017-11-30T13:55:21.961Z,69.20
2017-11-30T13:57:50.957Z,69.30
2017-11-30T14:00:18.426Z,69.30
2017-11-30T14:02:46.748Z,70.00
2017-11-30T14:05:14.210Z,70.00
2017-11-30T14:07:41.690Z,70.20
2017-11-30T14:10:09.143Z,70.10
2017-11-30T14:12:36.704Z,70.50
2017-11-30T14:15:04.178Z,70.60
2017-11-30T14:17:31.754Z,71.10
2017-11-30T14:20:00.038Z,71.70
2017-11-30T14:22:28.301Z,72.10
2017-11-30T14:24:55.814Z,72.10
2017-11-30T14:27:23.257Z,72.50
2017-11-30T14:29:50.730Z,73.50
2017-11-30T14:32:18.268Z,72.90
2017-11-30T14:34:45.742Z,73.20
2017-11-30T14:37:13.230Z,72.70
2017-11-30T14:39:40.710Z,73.10
2017-11-30T14:42:08.976Z,73.50
2017-11-30T14:44:36.466Z,73.50
2017-11-30T14:47:03.925Z,74.10
2017-11-30T14:49:31.386Z,74.00
2017-11-30T14:51:58.864Z,74.00
2017-11-30T14:54:26.346Z,74.60
2017-11-30T14:56:53.928Z,74.90
2017-11-30T14:59:22.295Z,74.90
2017-11-30T15:01:49.758Z,74.80
2017-11-30T15:04:18.027Z,75.00
2017-11-30T15:06:45.521Z,75.00
2017-11-30T15:09:13.041Z,75.00
2017-11-30T15:11:40.597Z,75.50
2017-11-30T15:14:08.065Z,76.10
2017-11-30T15:16:36.317Z,77.20
2017-11-30T15:19:03.823Z,77.10
2017-11-30T15:21:31.373Z,77.50
2017-11-30T15:23:59.638Z,77.70
2017-11-30T15:26:27.899Z,77.50
2017-11-30T15:28:55.370Z,77.60
2017-11-30T15:31:23.596Z,77.80
2017-11-30T15:33:51.069Z,77.70
2017-11-30T15:36:18.537Z,77.90
2017-11-30T15:38:46.088Z,77.60
2017-11-30T15:41:13.606Z,77.90
2017-11-30T15:43:41.091Z,77.60
2017-11-30T15:46:08.580Z,77.30
2017-11-30T15:48:36.820Z,76.40
2017-11-30T15:51:04.297Z,76.30
2017-11-30T15:53:31.794Z,76.40
2017-11-30T15:55:59.325Z,76.70
2017-11-30T15:58:27.597Z,77.10
2017-11-30T16:00:55.264Z,77.10
2017-11-30T16:03:22.752Z,77.40
2017-11-30T16:05:50.319Z,77.00
2017-11-30T16:08:17.796Z,77.00
2017-11-30T16:10:45.295Z,77.00
2017-11-30T16:13:12.838Z,76.90
2017-11-30T16:15:40.309Z,76.90
2017-11-30T16:18:07.798Z,77.20
2017-11-30T16:20:35.260Z,77.10
2017-11-30T16:23:02.773Z,76.80
2017-11-30T16:25:30.347Z,77.10
2017-11-30T16:27:58.584Z,76.20
2017-11-30T16:30:26.059Z,76.10
2017-11-30T16:32:53.642Z,75.80
2017-11-30T16:35:21.869Z,76.40
2017-11-30T16:37:49.328Z,75.50
2017-11-30T16:40:16.909Z,75.50
2017-11-30T16:42:44.464Z,75.40
2017-11-30T16:45:12.020Z,75.20
2017-11-30T16:47:39.481Z,75.20
2017-11-30T16:50:06.949Z,75.60
2017-11-30T16:52:35.200Z,75.40
2017-11-30T16:55:02.653Z,75.30
2017-11-30T16:57:30.115Z,75.10
2017-11-30T16:59:57.573Z,75.00
2017-11-30T17:02:25.137Z,74.20
2017-11-30T17:04:52.606Z,75.10
2017-11-30T17:07:20.870Z,75.00
2017-11-30T17:09:49.835Z,74.70
2017-11-30T17:12:17.305Z,74.60
2017-11-30T17:14:44.769Z,74.60
2017-11-30T17:17:12.241Z,74.70
2017-11-30T17:19:39.700Z,74.60
2017-11-30T17:22:07.190Z,74.90
2017-11-30T17:24:34.660Z,75.20
2017-11-30T17:27:02.178Z,74.60
2017-11-30T17:29:30.446Z,74.60
2017-11-30T17:31:57.913Z,74.40
2017-11-30T17:34:26.191Z,74.20
2017-11-30T17:36:53.612Z,74.10
2017-11-30T17:39:21.092Z,74.10
2017-11-30T17:41:48.686Z,73.80
2017-11-30T17:44:16.161Z,74.90
2017-11-30T17:46:43.621Z,74.30
2017-11-30T17:49:11.127Z,73.90
2017-11-30T17:51:39.370Z,73.90
2017-11-30T17:54:06.901Z,73.80
2017-11-30T17:56:34.370Z,73.90
2017-11-30T17:59:01.856Z,74.30
2017-11-30T18:01:29.318Z,74.00
2017-11-30T18:03:56.783Z,74.00
2017-11-30T18:06:25.748Z,73.80
2017-11-30T18:08:53.279Z,73.70
2017-11-30T18:11:21.632Z,73.70
2017-11-30T18:13:49.113Z,74.10
2017-11-30T18:16:16.604Z,74.20
2017-11-30T18:18:44.065Z,74.30
2017-11-30T18:21:11.532Z,74.50
2017-11-30T18:23:39.111Z,74.90
2017-11-30T18:26:07.346Z,75.30
2017-11-30T18:28:34.810Z,75.30
2017-11-30T18:31:02.273Z,75.10
2017-11-30T18:33:29.762Z,74.90
2017-11-30T18:35:58.002Z,75.00
2017-11-30T18:38:25.461Z,74.90
2017-11-30T18:40:52.941Z,74.90
2017-11-30T18:43:21.168Z,75.80
2017-11-30T18:45:48.639Z,74.90
2017-11-30T18:48:16.103Z,74.80
2017-11-30T18:50:43.565Z,74.60
2017-11-30T18:53:12.560Z,75.00
2017-11-30T18:55:40.117Z,74.90
2017-11-30T18:58:07.580Z,75.70
2017-11-30T19:00:35.059Z,74.90
2017-11-30T19:03:03.298Z,74.80
2017-11-30T19:05:30.873Z,74.70
2017-11-30T19:07:58.436Z,74.60
2017-11-30T19:10:25.892Z,74.70
2017-11-30T19:12:53.442Z,74.70
2017-11-30T19:15:20.900Z,77.20
2017-11-30T19:17:48.455Z,77.20
2017-11-30T19:20:16.017Z,79.20
2017-11-30T19:22:43.480Z,75.50
2017-11-30T19:25:11.723Z,74.20
2017-11-30T19:27:39.223Z,73.90
2017-11-30T19:30:07.470Z,74.20
2017-11-30T19:32:34.988Z,74.10
2017-11-30T19:35:02.452Z,74.20
2017-11-30T19:37:30.030Z,74.30
2017-11-30T19:39:57.514Z,74.20
2017-11-30T19:42:24.974Z,74.20
2017-11-30T19:44:52.521Z,74.40
2017-11-30T19:47:19.985Z,74.40
2017-11-30T19:49:47.449Z,74.60
2017-11-30T19:52:14.992Z,74.60
2017-11-30T19:54:42.503Z,74.60
2017-11-30T19:57:09.962Z,74.70
2017-11-30T19:59:37.465Z,74.90
2017-11-30T20:02:05.084Z,75.10
2017-11-30T20:04:32.594Z,75.20
2017-11-30T20:07:00.049Z,75.20
2017-11-30T20:09:27.606Z,75.20
2017-11-30T20:11:55.077Z,75.00
2017-11-30T20:14:23.309Z,76.10
2017-11-30T20:16:50.831Z,75.00
2017-11-30T20:19:18.467Z,74.90
2017-11-30T20:21:46.727Z,75.90
2017-11-30T20:24:14.185Z,75.00
2017-11-30T20:26:41.693Z,75.00
2017-11-30T20:29:09.158Z,75.10
2017-11-30T20:31:36.628Z,75.30
2017-11-30T20:34:04.168Z,75.10
2017-11-30T20:36:31.649Z,75.20
2017-11-30T20:38:59.108Z,75.10
2017-11-30T20:41:26.608Z,75.90
2017-11-30T20:43:54.839Z,75.30
2017-11-30T20:46:22.302Z,75.20
2017-11-30T20:48:49.793Z,75.60
2017-11-30T20:51:18.055Z,75.60
2017-11-30T20:53:45.615Z,75.60
2017-11-30T20:56:13.116Z,75.50
2017-11-30T20:58:40.581Z,75.80
2017-11-30T21:01:08.040Z,75.60
2017-11-30T21:03:35.566Z,75.80
2017-11-30T21:06:03.793Z,75.90
2017-11-30T21:08:31.257Z,75.90
2017-11-30T21:10:58.834Z,75.80
2017-11-30T21:13:26.341Z,75.60
2017-11-30T21:15:53.811Z,76.30
2017-11-30T21:18:21.308Z,76.20
2017-11-30T21:20:49.536Z,76.30
2017-11-30T21:23:17.006Z,76.40
2017-11-30T21:25:44.472Z,76.30
2017-11-30T21:28:11.942Z,76.20
2017-11-30T21:30:39.404Z,76.20
2017-11-30T21:33:06.876Z,76.30
2017-11-30T21:35:35.107Z,76.30
2017-11-30T21:38:02.596Z,76.30
2017-11-30T21:40:30.059Z,77.20
2017-11-30T21:42:58.376Z,77.20
2017-11-30T21:45:25.886Z,76.70
2017-11-30T21:47:53.351Z,76.70
2017-11-30T21:50:21.598Z,76.90
2017-11-30T21:52:49.069Z,76.80
2017-11-30T21:55:16.520Z,76.60
2017-11-30T21:57:43.994Z,76.60
2017-11-30T22:00:12.256Z,77.50
2017-11-30T22:02:39.816Z,76.50
2017-11-30T22:05:07.278Z,76.40
2017-11-30T22:07:34.760Z,76.30
2017-11-30T22:10:02.999Z,76.30
2017-11-30T22:12:30.472Z,76.30
2017-11-30T22:14:58.728Z,76.30
2017-11-30T22:17:26.192Z,76.30
2017-11-30T22:19:53.662Z,76.10
2017-11-30T22:22:21.925Z,76.30
2017-11-30T22:24:49.490Z,76.20
2017-11-30T22:27:16.977Z,76.40
2017-11-30T22:29:44.492Z,77.20
2017-11-30T22:32:11.965Z,76.60
2017-11-30T22:34:39.521Z,76.60
2017-11-30T22:37:07.073Z,76.50
2017-11-30T22:39:34.549Z,77.30
2017-11-30T22:42:02.857Z,76.00
2017-11-30T22:44:30.360Z,75.90
2017-11-30T22:46:58.593Z,76.10
2017-11-30T22:49:26.111Z,76.20
2017-11-30T22:51:54.390Z,76.70
2017-11-30T22:54:22.622Z,75.80
2017-11-30T22:56:50.090Z,75.90
2017-11-30T22:59:17.568Z,75.80
2017-11-30T23:01:45.137Z,75.80
2017-11-30T23:04:13.537Z,75.70
2017-11-30T23:06:41.006Z,75.50
2017-11-30T23:09:08.474Z,75.60
2017-11-30T23:11:35.930Z,75.50
2017-11-30T23:14:03.421Z,75.50
2017-11-30T23:16:30.977Z,75.40
2017-11-30T23:18:58.441Z,75.40
2017-11-30T23:21:25.912Z,75.30
2017-11-30T23:23:54.149Z,75.70
2017-11-30T23:26:21.681Z,75.70
2017-11-30T23:28:49.185Z,75.80
2017-11-30T23:31:17.418Z,75.90
2017-11-30T23:33:44.894Z,76.00
2017-11-30T23:36:12.365Z,75.90
2017-11-30T23:38:39.937Z,76.00
2017-11-30T23:41:07.415Z,76.20
2017-11-30T23:43:35.649Z,76.10
2017-11-30T23:46:03.118Z,76.00
2017-11-30T23:48:30.677Z,76.00
2017-11-30T23:50:58.144Z,76.00
2017-11-30T23:53:25.612Z,76.10
2017-11-30T23:55:53.912Z,76.20
2017-11-30T23:58:21.373Z,76.10
